Wan Hai 273 — 9V7586 — position and weather

sailwx.info

Track history (hours):
 
Tides and Currents Weather Stations Pressure Air Temp Water Temp Dewpoint Dewpoint Depression Visibility Wind Speed Wind Dir Waves Ship Positions

Wan Hai 273

Last reported at 2014-Sep-18 11:17 UTC. Time now 2014-Sep-18 13:40 UTC.
Position N 22°16' E 114°06'.

Length 172 m; draft 8.4 m.

Type: Cargo ship. MMSI: 566406000.

Date/timePositionNaut miles runAvg speedWind from/ knotsBaromVisibWave heightAir tempDewpointWater temp
2014-Sep-18 11:17N 22°16' E 114°06'0 0.0
2014-Sep-18 09:15N 22°16' E 114°06'0 0.0
2014-Sep-18 08:22N 22°16' E 114°06'3 4.0
2014-Sep-18 07:33N 22°19' E 114°05'1111.4
2014-Sep-18 06:33N 22°23' E 113°54'4 4.2
2014-Sep-18 05:33N 22°27' E 113°53'0 0.0
2014-Sep-18 04:30N 22°27' E 113°53'0 0.0
2014-Sep-18 03:33N 22°27' E 113°53'0 0.0
2014-Sep-18 02:33N 22°27' E 113°53'0 0.0
2014-Sep-18 01:33N 22°27' E 113°53'0 0.1
2014-Sep-18 00:33N 22°27' E 113°53'0 0.1
2014-Sep-17 23:33N 22°27' E 113°53'0 0.0
2014-Sep-17 22:33N 22°27' E 113°53'0 0.1
2014-Sep-17 21:33N 22°27' E 113°53'0 0.1
2014-Sep-17 20:33N 22°27' E 113°53'0 0.0
2014-Sep-17 19:18N 22°27' E 113°53'0 0.1
2014-Sep-17 18:33N 22°27' E 113°53'1 1.0
2014-Sep-17 17:33N 22°26' E 113°53'12 9.7
2014-Sep-17 16:17N 22°20' E 114°05'3 3.6
2014-Sep-17 15:30N 22°18' E 114°06'910.0
2014-Sep-17 14:33N 22°10' E 114°12'  
2014-Sep-15 06:09N 21°58' E 114°02'915.0
2014-Sep-15 05:33N 21°52' E 113°54'  
2014-Sep-09 06:33N 21°55' E 113°58'1917.7
2014-Sep-09 05:29N 22°09' E 114°12'1110.9
2014-Sep-09 04:30N 22°18' E 114°06'1112.2
2014-Sep-09 03:33N 22°22' E 113°54'5 5.3
2014-Sep-09 02:31N 22°28' E 113°54'0 0.0
2014-Sep-09 01:31N 22°28' E 113°54'0 0.0
2014-Sep-09 00:31N 22°28' E 113°54'0 0.0
2014-Sep-08 23:27N 22°28' E 113°54'0 0.1
2014-Sep-08 22:31N 22°28' E 113°54'0 0.1
2014-Sep-08 21:33N 22°28' E 113°54'0 0.0
2014-Sep-08 20:33N 22°28' E 113°54'0 0.0
2014-Sep-08 19:33N 22°28' E 113°54'0 0.0
2014-Sep-08 18:33N 22°28' E 113°54'0 0.0
2014-Sep-08 17:33N 22°28' E 113°54'0 0.1
2014-Sep-08 16:33N 22°28' E 113°54'0 0.0
2014-Sep-08 15:33N 22°28' E 113°54'15 7.3
2014-Sep-08 13:33N 22°20' E 114°07'  
Track history (hours):
 
Tides and Currents Weather Stations Pressure Air Temp Water Temp Dewpoint Dewpoint Depression Visibility Wind Speed Wind Dir Waves Ship Positions

Wan Hai 273

Last reported at 2014-Sep-18 11:17 UTC. Time now 2014-Sep-18 13:40 UTC.
Position N 22°16' E 114°06'.

Length 172 m; draft 8.4 m.

Type: Cargo ship. MMSI: 566406000.

Date/timePositionNaut miles runAvg speedWind from/ knotsBaromVisibWave heightAir tempDewpointWater temp
2014-Sep-18 11:17N 22°16' E 114°06'0 0.0
2014-Sep-18 09:15N 22°16' E 114°06'0 0.0
2014-Sep-18 08:22N 22°16' E 114°06'3 4.0
2014-Sep-18 07:33N 22°19' E 114°05'1111.4
2014-Sep-18 06:33N 22°23' E 113°54'4 4.2
2014-Sep-18 05:33N 22°27' E 113°53'0 0.0
2014-Sep-18 04:30N 22°27' E 113°53'0 0.0
2014-Sep-18 03:33N 22°27' E 113°53'0 0.0
2014-Sep-18 02:33N 22°27' E 113°53'0 0.0
2014-Sep-18 01:33N 22°27' E 113°53'0 0.1
2014-Sep-18 00:33N 22°27' E 113°53'0 0.1
2014-Sep-17 23:33N 22°27' E 113°53'0 0.0
2014-Sep-17 22:33N 22°27' E 113°53'0 0.1
2014-Sep-17 21:33N 22°27' E 113°53'0 0.1
2014-Sep-17 20:33N 22°27' E 113°53'0 0.0
2014-Sep-17 19:18N 22°27' E 113°53'0 0.1
2014-Sep-17 18:33N 22°27' E 113°53'1 1.0
2014-Sep-17 17:33N 22°26' E 113°53'12 9.7
2014-Sep-17 16:17N 22°20' E 114°05'3 3.6
2014-Sep-17 15:30N 22°18' E 114°06'910.0
2014-Sep-17 14:33N 22°10' E 114°12'  
2014-Sep-15 06:09N 21°58' E 114°02'915.0
2014-Sep-15 05:33N 21°52' E 113°54'  
2014-Sep-09 06:33N 21°55' E 113°58'1917.7
2014-Sep-09 05:29N 22°09' E 114°12'1110.9
2014-Sep-09 04:30N 22°18' E 114°06'1112.2
2014-Sep-09 03:33N 22°22' E 113°54'5 5.3
2014-Sep-09 02:31N 22°28' E 113°54'0 0.0
2014-Sep-09 01:31N 22°28' E 113°54'0 0.0
2014-Sep-09 00:31N 22°28' E 113°54'0 0.0
2014-Sep-08 23:27N 22°28' E 113°54'0 0.1
2014-Sep-08 22:31N 22°28' E 113°54'0 0.1
2014-Sep-08 21:33N 22°28' E 113°54'0 0.0
2014-Sep-08 20:33N 22°28' E 113°54'0 0.0
2014-Sep-08 19:33N 22°28' E 113°54'0 0.0
2014-Sep-08 18:33N 22°28' E 113°54'0 0.0
2014-Sep-08 17:33N 22°28' E 113°54'0 0.1
2014-Sep-08 16:33N 22°28' E 113°54'0 0.0
2014-Sep-08 15:33N 22°28' E 113°54'15 7.3
2014-Sep-08 13:33N 22°20' E 114°07'  

Dump ship's entire track history